sensor_id;sensor_type;location;lat;lon;timestamp;temperature;humidity
74666;DHT22;71408;50.106;8.694;2023-08-30T00:01:30;24.80;49.50
74666;DHT22;71408;50.106;8.694;2023-08-30T00:03:56;24.80;49.40
74666;DHT22;71408;50.106;8.694;2023-08-30T00:06:21;24.80;49.50
74666;DHT22;71408;50.106;8.694;2023-08-30T00:08:47;24.80;49.40
74666;DHT22;71408;50.106;8.694;2023-08-30T00:11:13;24.70;49.50
74666;DHT22;71408;50.106;8.694;2023-08-30T00:13:39;24.70;50.20
74666;DHT22;71408;50.106;8.694;2023-08-30T00:16:06;24.70;49.60
74666;DHT22;71408;50.106;8.694;2023-08-30T00:18:32;24.70;49.50
74666;DHT22;71408;50.106;8.694;2023-08-30T00:20:57;24.70;49.50
74666;DHT22;71408;50.106;8.694;2023-08-30T00:23:23;24.70;49.50
74666;DHT22;71408;50.106;8.694;2023-08-30T00:25:48;24.70;49.60
74666;DHT22;71408;50.106;8.694;2023-08-30T00:28:14;24.70;49.60
74666;DHT22;71408;50.106;8.694;2023-08-30T00:30:40;24.70;49.60
74666;DHT22;71408;50.106;8.694;2023-08-30T00:33:05;24.70;49.60
74666;DHT22;71408;50.106;8.694;2023-08-30T00:35:30;24.70;49.60
74666;DHT22;71408;50.106;8.694;2023-08-30T00:37:56;24.70;49.60
74666;DHT22;71408;50.106;8.694;2023-08-30T00:40:24;24.70;49.60
74666;DHT22;71408;50.106;8.694;2023-08-30T00:42:50;24.60;49.70
74666;DHT22;71408;50.106;8.694;2023-08-30T00:45:16;24.70;49.60
74666;DHT22;71408;50.106;8.694;2023-08-30T00:47:41;24.70;49.50
74666;DHT22;71408;50.106;8.694;2023-08-30T00:50:07;24.70;49.50
74666;DHT22;71408;50.106;8.694;2023-08-30T00:52:33;24.60;49.50
74666;DHT22;71408;50.106;8.694;2023-08-30T00:54:59;24.60;49.60
74666;DHT22;71408;50.106;8.694;2023-08-30T00:57:24;24.60;49.70
74666;DHT22;71408;50.106;8.694;2023-08-30T00:59:50;24.60;49.70
74666;DHT22;71408;50.106;8.694;2023-08-30T01:02:16;24.60;49.60
74666;DHT22;71408;50.106;8.694;2023-08-30T01:04:42;24.60;49.70
74666;DHT22;71408;50.106;8.694;2023-08-30T01:07:07;24.60;49.70
74666;DHT22;71408;50.106;8.694;2023-08-30T01:09:33;24.60;49.60
74666;DHT22;71408;50.106;8.694;2023-08-30T01:12:17;24.60;49.60
74666;DHT22;71408;50.106;8.694;2023-08-30T01:14:46;24.60;49.70
74666;DHT22;71408;50.106;8.694;2023-08-30T01:17:13;24.50;49.70
74666;DHT22;71408;50.106;8.694;2023-08-30T01:19:45;24.50;49.80
74666;DHT22;71408;50.106;8.694;2023-08-30T01:22:19;24.50;49.70
74666;DHT22;71408;50.106;8.694;2023-08-30T01:24:48;24.50;49.70
74666;DHT22;71408;50.106;8.694;2023-08-30T01:27:19;24.50;49.70
74666;DHT22;71408;50.106;8.694;2023-08-30T01:29:45;24.50;49.70
74666;DHT22;71408;50.106;8.694;2023-08-30T01:32:11;24.50;49.80
74666;DHT22;71408;50.106;8.694;2023-08-30T01:34:37;24.50;49.80
74666;DHT22;71408;50.106;8.694;2023-08-30T01:37:07;24.50;49.70
74666;DHT22;71408;50.106;8.694;2023-08-30T01:39:38;24.50;49.70
74666;DHT22;71408;50.106;8.694;2023-08-30T01:42:06;24.50;49.70
74666;DHT22;71408;50.106;8.694;2023-08-30T01:44:32;24.50;49.80
74666;DHT22;71408;50.106;8.694;2023-08-30T01:46:58;24.50;49.90
74666;DHT22;71408;50.106;8.694;2023-08-30T01:49:24;24.60;49.80
74666;DHT22;71408;50.106;8.694;2023-08-30T01:51:50;24.50;50.30
74666;DHT22;71408;50.106;8.694;2023-08-30T01:54:17;24.50;49.60
74666;DHT22;71408;50.106;8.694;2023-08-30T01:56:42;24.60;49.70
74666;DHT22;71408;50.106;8.694;2023-08-30T01:59:08;24.50;50.30
74666;DHT22;71408;50.106;8.694;2023-08-30T02:01:34;24.50;49.60
74666;DHT22;71408;50.106;8.694;2023-08-30T02:03:59;24.60;49.50
74666;DHT22;71408;50.106;8.694;2023-08-30T02:06:34;24.60;49.50
74666;DHT22;71408;50.106;8.694;2023-08-30T02:09:14;24.60;49.50
74666;DHT22;71408;50.106;8.694;2023-08-30T02:11:42;24.60;49.60
74666;DHT22;71408;50.106;8.694;2023-08-30T02:14:09;24.50;49.60
74666;DHT22;71408;50.106;8.694;2023-08-30T02:16:36;24.50;49.60
74666;DHT22;71408;50.106;8.694;2023-08-30T02:19:02;24.50;49.60
74666;DHT22;71408;50.106;8.694;2023-08-30T02:21:28;24.50;49.60
74666;DHT22;71408;50.106;8.694;2023-08-30T02:23:53;24.50;49.60
74666;DHT22;71408;50.106;8.694;2023-08-30T02:26:19;24.50;49.70
74666;DHT22;71408;50.106;8.694;2023-08-30T02:28:45;24.50;49.80
74666;DHT22;71408;50.106;8.694;2023-08-30T02:31:10;24.40;49.80
74666;DHT22;71408;50.106;8.694;2023-08-30T02:33:36;24.40;49.80
74666;DHT22;71408;50.106;8.694;2023-08-30T02:36:03;24.40;49.90
74666;DHT22;71408;50.106;8.694;2023-08-30T02:38:28;24.40;49.80
74666;DHT22;71408;50.106;8.694;2023-08-30T02:40:54;24.40;49.80
74666;DHT22;71408;50.106;8.694;2023-08-30T02:43:19;24.50;49.80
74666;DHT22;71408;50.106;8.694;2023-08-30T02:45:44;24.40;49.70
74666;DHT22;71408;50.106;8.694;2023-08-30T02:48:10;24.40;49.80
74666;DHT22;71408;50.106;8.694;2023-08-30T02:50:35;24.30;49.90
74666;DHT22;71408;50.106;8.694;2023-08-30T02:53:01;24.30;49.90
74666;DHT22;71408;50.106;8.694;2023-08-30T02:55:27;24.40;49.80
74666;DHT22;71408;50.106;8.694;2023-08-30T02:57:52;24.40;49.80
74666;DHT22;71408;50.106;8.694;2023-08-30T03:00:17;24.40;49.80
74666;DHT22;71408;50.106;8.694;2023-08-30T03:02:43;24.40;49.80
74666;DHT22;71408;50.106;8.694;2023-08-30T03:05:08;24.40;49.80
74666;DHT22;71408;50.106;8.694;2023-08-30T03:07:34;24.40;49.60
74666;DHT22;71408;50.106;8.694;2023-08-30T03:09:59;24.40;49.60
74666;DHT22;71408;50.106;8.694;2023-08-30T03:12:25;24.40;49.60
74666;DHT22;71408;50.106;8.694;2023-08-30T03:14:51;24.40;49.70
74666;DHT22;71408;50.106;8.694;2023-08-30T03:17:16;24.40;49.70
74666;DHT22;71408;50.106;8.694;2023-08-30T03:19:41;24.30;49.70
74666;DHT22;71408;50.106;8.694;2023-08-30T03:22:07;24.30;49.90
74666;DHT22;71408;50.106;8.694;2023-08-30T03:24:32;24.30;49.90
74666;DHT22;71408;50.106;8.694;2023-08-30T03:26:58;24.30;49.90
74666;DHT22;71408;50.106;8.694;2023-08-30T03:29:25;24.40;49.80
74666;DHT22;71408;50.106;8.694;2023-08-30T03:31:50;24.40;49.60
74666;DHT22;71408;50.106;8.694;2023-08-30T03:34:15;24.40;49.70
74666;DHT22;71408;50.106;8.694;2023-08-30T03:36:41;24.30;49.70
74666;DHT22;71408;50.106;8.694;2023-08-30T03:39:09;24.30;49.80
74666;DHT22;71408;50.106;8.694;2023-08-30T03:41:34;24.30;49.70
74666;DHT22;71408;50.106;8.694;2023-08-30T03:44:00;24.30;50.30
74666;DHT22;71408;50.106;8.694;2023-08-30T03:46:25;24.40;49.70
74666;DHT22;71408;50.106;8.694;2023-08-30T03:48:51;24.40;49.70
74666;DHT22;71408;50.106;8.694;2023-08-30T03:51:17;24.40;49.70
74666;DHT22;71408;50.106;8.694;2023-08-30T03:53:42;24.40;49.80
74666;DHT22;71408;50.106;8.694;2023-08-30T03:56:08;24.40;49.70
74666;DHT22;71408;50.106;8.694;2023-08-30T03:58:33;24.40;49.60
74666;DHT22;71408;50.106;8.694;2023-08-30T04:00:59;24.40;49.70
74666;DHT22;71408;50.106;8.694;2023-08-30T04:03:24;24.40;49.70
74666;DHT22;71408;50.106;8.694;2023-08-30T04:05:56;24.40;49.70
74666;DHT22;71408;50.106;8.694;2023-08-30T04:08:24;24.30;49.70
74666;DHT22;71408;50.106;8.694;2023-08-30T04:10:52;24.30;49.80
74666;DHT22;71408;50.106;8.694;2023-08-30T04:13:17;24.30;49.80
74666;DHT22;71408;50.106;8.694;2023-08-30T04:15:43;24.30;49.80
74666;DHT22;71408;50.106;8.694;2023-08-30T04:18:08;24.30;49.80
74666;DHT22;71408;50.106;8.694;2023-08-30T04:20:34;24.30;49.90
74666;DHT22;71408;50.106;8.694;2023-08-30T04:23:00;24.30;49.90
74666;DHT22;71408;50.106;8.694;2023-08-30T04:25:27;24.30;49.80
74666;DHT22;71408;50.106;8.694;2023-08-30T04:27:52;24.30;49.90
74666;DHT22;71408;50.106;8.694;2023-08-30T04:30:18;24.20;49.90
74666;DHT22;71408;50.106;8.694;2023-08-30T04:32:43;24.30;49.90
74666;DHT22;71408;50.106;8.694;2023-08-30T04:35:09;24.30;49.80
74666;DHT22;71408;50.106;8.694;2023-08-30T04:37:35;24.30;49.80
74666;DHT22;71408;50.106;8.694;2023-08-30T04:40:00;24.30;49.80
74666;DHT22;71408;50.106;8.694;2023-08-30T04:42:26;24.20;49.70
74666;DHT22;71408;50.106;8.694;2023-08-30T04:44:51;24.20;49.80
74666;DHT22;71408;50.106;8.694;2023-08-30T04:47:19;24.30;49.80
74666;DHT22;71408;50.106;8.694;2023-08-30T04:49:49;24.20;49.80
74666;DHT22;71408;50.106;8.694;2023-08-30T04:52:15;24.20;49.90
74666;DHT22;71408;50.106;8.694;2023-08-30T04:54:40;24.20;49.90
74666;DHT22;71408;50.106;8.694;2023-08-30T04:57:06;24.20;49.80
74666;DHT22;71408;50.106;8.694;2023-08-30T04:59:32;24.20;49.90
74666;DHT22;71408;50.106;8.694;2023-08-30T05:01:57;24.20;50.00
74666;DHT22;71408;50.106;8.694;2023-08-30T05:04:24;24.10;50.00
74666;DHT22;71408;50.106;8.694;2023-08-30T05:06:49;24.10;50.00
74666;DHT22;71408;50.106;8.694;2023-08-30T05:09:15;24.10;50.00
74666;DHT22;71408;50.106;8.694;2023-08-30T05:11:40;24.20;49.80
74666;DHT22;71408;50.106;8.694;2023-08-30T05:14:06;24.20;49.80
74666;DHT22;71408;50.106;8.694;2023-08-30T05:16:32;24.10;50.00
74666;DHT22;71408;50.106;8.694;2023-08-30T05:18:57;24.20;50.00
74666;DHT22;71408;50.106;8.694;2023-08-30T05:21:23;24.20;49.90
74666;DHT22;71408;50.106;8.694;2023-08-30T05:23:48;24.20;49.90
74666;DHT22;71408;50.106;8.694;2023-08-30T05:26:14;24.20;49.80
74666;DHT22;71408;50.106;8.694;2023-08-30T05:28:39;24.20;49.80
74666;DHT22;71408;50.106;8.694;2023-08-30T05:31:05;24.20;49.90
74666;DHT22;71408;50.106;8.694;2023-08-30T05:33:31;24.20;49.80
74666;DHT22;71408;50.106;8.694;2023-08-30T05:35:56;24.20;49.80
74666;DHT22;71408;50.106;8.694;2023-08-30T05:38:22;24.10;49.80
74666;DHT22;71408;50.106;8.694;2023-08-30T05:40:47;24.10;49.80
74666;DHT22;71408;50.106;8.694;2023-08-30T05:43:13;24.10;49.90
74666;DHT22;71408;50.106;8.694;2023-08-30T05:45:38;24.10;49.90
74666;DHT22;71408;50.106;8.694;2023-08-30T05:48:05;24.10;49.80
74666;DHT22;71408;50.106;8.694;2023-08-30T05:50:31;24.20;49.80
74666;DHT22;71408;50.106;8.694;2023-08-30T05:52:56;24.20;49.70
74666;DHT22;71408;50.106;8.694;2023-08-30T05:55:21;24.20;49.70
74666;DHT22;71408;50.106;8.694;2023-08-30T05:57:47;24.20;49.60
74666;DHT22;71408;50.106;8.694;2023-08-30T06:00:13;24.20;49.70
74666;DHT22;71408;50.106;8.694;2023-08-30T06:02:38;24.10;49.70
74666;DHT22;71408;50.106;8.694;2023-08-30T06:05:04;24.10;49.80
74666;DHT22;71408;50.106;8.694;2023-08-30T06:07:30;24.10;49.90
74666;DHT22;71408;50.106;8.694;2023-08-30T06:09:55;24.10;50.00
74666;DHT22;71408;50.106;8.694;2023-08-30T06:12:21;24.10;50.00
74666;DHT22;71408;50.106;8.694;2023-08-30T06:14:46;24.10;49.90
74666;DHT22;71408;50.106;8.694;2023-08-30T06:17:17;24.10;49.90
74666;DHT22;71408;50.106;8.694;2023-08-30T06:19:43;24.10;49.80
74666;DHT22;71408;50.106;8.694;2023-08-30T06:22:08;24.10;49.80
74666;DHT22;71408;50.106;8.694;2023-08-30T06:24:34;24.20;49.60
74666;DHT22;71408;50.106;8.694;2023-08-30T06:26:59;24.20;49.70
74666;DHT22;71408;50.106;8.694;2023-08-30T06:29:25;24.10;49.80
74666;DHT22;71408;50.106;8.694;2023-08-30T06:31:50;24.10;49.80
74666;DHT22;71408;50.106;8.694;2023-08-30T06:34:16;24.10;49.70
74666;DHT22;71408;50.106;8.694;2023-08-30T06:36:41;24.10;49.80
74666;DHT22;71408;50.106;8.694;2023-08-30T06:39:07;24.10;49.80
74666;DHT22;71408;50.106;8.694;2023-08-30T06:41:32;24.20;49.80
74666;DHT22;71408;50.106;8.694;2023-08-30T06:43:58;24.10;50.00
74666;DHT22;71408;50.106;8.694;2023-08-30T06:46:24;24.10;50.10
74666;DHT22;71408;50.106;8.694;2023-08-30T06:48:49;24.00;50.20
74666;DHT22;71408;50.106;8.694;2023-08-30T06:51:14;24.00;50.30
74666;DHT22;71408;50.106;8.694;2023-08-30T06:53:40;24.00;50.40
74666;DHT22;71408;50.106;8.694;2023-08-30T06:56:05;24.00;50.40
74666;DHT22;71408;50.106;8.694;2023-08-30T06:58:31;24.00;50.30
74666;DHT22;71408;50.106;8.694;2023-08-30T07:00:56;24.10;51.00
74666;DHT22;71408;50.106;8.694;2023-08-30T07:03:22;24.10;50.30
74666;DHT22;71408;50.106;8.694;2023-08-30T07:05:48;24.10;50.30
74666;DHT22;71408;50.106;8.694;2023-08-30T07:08:14;24.10;50.50
74666;DHT22;71408;50.106;8.694;2023-08-30T07:10:39;24.10;50.50
74666;DHT22;71408;50.106;8.694;2023-08-30T07:13:05;24.00;50.80
74666;DHT22;71408;50.106;8.694;2023-08-30T07:15:38;24.00;50.80
74666;DHT22;71408;50.106;8.694;2023-08-30T07:18:05;23.90;51.00
74666;DHT22;71408;50.106;8.694;2023-08-30T07:20:31;23.90;50.80
74666;DHT22;71408;50.106;8.694;2023-08-30T07:22:56;24.00;50.90
74666;DHT22;71408;50.106;8.694;2023-08-30T07:25:22;24.10;51.00
74666;DHT22;71408;50.106;8.694;2023-08-30T07:27:47;24.10;50.80
74666;DHT22;71408;50.106;8.694;2023-08-30T07:30:13;24.10;50.90
74666;DHT22;71408;50.106;8.694;2023-08-30T07:32:38;24.10;51.10
74666;DHT22;71408;50.106;8.694;2023-08-30T07:35:04;24.00;51.10
74666;DHT22;71408;50.106;8.694;2023-08-30T07:37:30;24.00;51.20
74666;DHT22;71408;50.106;8.694;2023-08-30T07:39:55;24.10;51.40
74666;DHT22;71408;50.106;8.694;2023-08-30T07:42:20;24.10;51.20
74666;DHT22;71408;50.106;8.694;2023-08-30T07:44:46;24.10;51.30
74666;DHT22;71408;50.106;8.694;2023-08-30T07:47:11;24.10;51.40
74666;DHT22;71408;50.106;8.694;2023-08-30T07:49:37;24.10;51.50
74666;DHT22;71408;50.106;8.694;2023-08-30T07:52:02;24.10;51.70
74666;DHT22;71408;50.106;8.694;2023-08-30T07:54:28;24.10;51.80
74666;DHT22;71408;50.106;8.694;2023-08-30T07:56:54;24.00;51.80
74666;DHT22;71408;50.106;8.694;2023-08-30T07:59:19;24.00;51.90
74666;DHT22;71408;50.106;8.694;2023-08-30T08:01:45;24.00;51.90
74666;DHT22;71408;50.106;8.694;2023-08-30T08:04:11;24.00;52.00
74666;DHT22;71408;50.106;8.694;2023-08-30T08:06:36;24.00;52.10
74666;DHT22;71408;50.106;8.694;2023-08-30T08:09:02;24.00;52.10
74666;DHT22;71408;50.106;8.694;2023-08-30T08:11:27;24.00;52.20
74666;DHT22;71408;50.106;8.694;2023-08-30T08:13:53;23.90;52.40
74666;DHT22;71408;50.106;8.694;2023-08-30T08:16:18;23.90;52.50
74666;DHT22;71408;50.106;8.694;2023-08-30T08:18:45;23.90;52.50
74666;DHT22;71408;50.106;8.694;2023-08-30T08:21:10;23.90;52.50
74666;DHT22;71408;50.106;8.694;2023-08-30T08:23:35;23.90;52.60
74666;DHT22;71408;50.106;8.694;2023-08-30T08:26:01;23.90;52.60
74666;DHT22;71408;50.106;8.694;2023-08-30T08:28:28;23.90;52.60
74666;DHT22;71408;50.106;8.694;2023-08-30T08:30:53;23.80;52.50
74666;DHT22;71408;50.106;8.694;2023-08-30T08:33:19;23.80;52.60
74666;DHT22;71408;50.106;8.694;2023-08-30T08:35:45;23.80;52.60
74666;DHT22;71408;50.106;8.694;2023-08-30T08:38:10;23.90;52.60
74666;DHT22;71408;50.106;8.694;2023-08-30T08:40:37;23.90;52.50
74666;DHT22;71408;50.106;8.694;2023-08-30T08:43:03;23.90;52.50
74666;DHT22;71408;50.106;8.694;2023-08-30T08:45:28;23.90;52.40
74666;DHT22;71408;50.106;8.694;2023-08-30T08:47:54;23.80;52.40
74666;DHT22;71408;50.106;8.694;2023-08-30T08:50:20;23.80;52.50
74666;DHT22;71408;50.106;8.694;2023-08-30T08:52:45;23.80;52.40
74666;DHT22;71408;50.106;8.694;2023-08-30T08:55:12;23.80;52.30
74666;DHT22;71408;50.106;8.694;2023-08-30T08:57:38;23.90;52.20
74666;DHT22;71408;50.106;8.694;2023-08-30T09:00:04;23.90;52.20
74666;DHT22;71408;50.106;8.694;2023-08-30T09:02:31;23.90;52.30
74666;DHT22;71408;50.106;8.694;2023-08-30T09:04:57;23.90;52.10
74666;DHT22;71408;50.106;8.694;2023-08-30T09:07:24;23.90;52.20
74666;DHT22;71408;50.106;8.694;2023-08-30T09:09:50;23.90;52.20
74666;DHT22;71408;50.106;8.694;2023-08-30T09:12:17;23.90;52.20
74666;DHT22;71408;50.106;8.694;2023-08-30T09:14:52;23.90;52.20
74666;DHT22;71408;50.106;8.694;2023-08-30T09:17:18;23.90;52.10
74666;DHT22;71408;50.106;8.694;2023-08-30T09:19:44;24.00;52.00
74666;DHT22;71408;50.106;8.694;2023-08-30T09:22:09;24.00;51.70
74666;DHT22;71408;50.106;8.694;2023-08-30T09:24:38;24.10;51.70
74666;DHT22;71408;50.106;8.694;2023-08-30T09:27:07;24.00;51.80
74666;DHT22;71408;50.106;8.694;2023-08-30T09:29:33;24.00;51.80
74666;DHT22;71408;50.106;8.694;2023-08-30T09:31:58;24.00;51.80
74666;DHT22;71408;50.106;8.694;2023-08-30T09:34:26;24.00;51.80
74666;DHT22;71408;50.106;8.694;2023-08-30T09:36:52;24.00;51.70
74666;DHT22;71408;50.106;8.694;2023-08-30T09:39:17;24.00;51.60
74666;DHT22;71408;50.106;8.694;2023-08-30T09:41:43;23.90;51.60
74666;DHT22;71408;50.106;8.694;2023-08-30T09:44:12;24.00;51.50
74666;DHT22;71408;50.106;8.694;2023-08-30T09:49:23;24.00;51.40
74666;DHT22;71408;50.106;8.694;2023-08-30T09:51:49;24.00;51.40
74666;DHT22;71408;50.106;8.694;2023-08-30T09:54:24;24.00;51.30
74666;DHT22;71408;50.106;8.694;2023-08-30T09:56:50;24.00;51.30
74666;DHT22;71408;50.106;8.694;2023-08-30T09:59:18;24.10;51.30
74666;DHT22;71408;50.106;8.694;2023-08-30T10:01:46;24.10;51.20
74666;DHT22;71408;50.106;8.694;2023-08-30T10:04:12;24.10;51.10
74666;DHT22;71408;50.106;8.694;2023-08-30T10:06:38;24.10;51.10
74666;DHT22;71408;50.106;8.694;2023-08-30T10:09:04;24.10;50.90
74666;DHT22;71408;50.106;8.694;2023-08-30T10:11:32;24.20;50.80
74666;DHT22;71408;50.106;8.694;2023-08-30T10:13:58;24.20;50.70
74666;DHT22;71408;50.106;8.694;2023-08-30T10:16:24;24.20;50.70
74666;DHT22;71408;50.106;8.694;2023-08-30T10:18:52;24.20;50.70
74666;DHT22;71408;50.106;8.694;2023-08-30T10:21:19;24.20;50.70
74666;DHT22;71408;50.106;8.694;2023-08-30T10:23:46;24.10;50.60
74666;DHT22;71408;50.106;8.694;2023-08-30T10:26:12;24.10;50.80
74666;DHT22;71408;50.106;8.694;2023-08-30T10:28:38;24.20;50.60
74666;DHT22;71408;50.106;8.694;2023-08-30T10:31:05;24.20;50.50
74666;DHT22;71408;50.106;8.694;2023-08-30T10:33:30;24.20;50.50
74666;DHT22;71408;50.106;8.694;2023-08-30T10:36:02;24.20;50.40
74666;DHT22;71408;50.106;8.694;2023-08-30T10:38:28;24.20;50.50
74666;DHT22;71408;50.106;8.694;2023-08-30T10:40:54;24.20;50.60
74666;DHT22;71408;50.106;8.694;2023-08-30T10:43:27;24.20;50.40
74666;DHT22;71408;50.106;8.694;2023-08-30T10:46:03;24.20;50.40
74666;DHT22;71408;50.106;8.694;2023-08-30T10:48:39;24.30;50.30
74666;DHT22;71408;50.106;8.694;2023-08-30T10:51:06;24.30;50.20
74666;DHT22;71408;50.106;8.694;2023-08-30T10:53:41;24.30;50.10
74666;DHT22;71408;50.106;8.694;2023-08-30T10:56:07;24.30;49.90
74666;DHT22;71408;50.106;8.694;2023-08-30T10:58:40;24.30;49.70
74666;DHT22;71408;50.106;8.694;2023-08-30T11:01:07;24.30;49.60
74666;DHT22;71408;50.106;8.694;2023-08-30T11:03:33;24.30;49.70
74666;DHT22;71408;50.106;8.694;2023-08-30T11:05:59;24.30;49.50
74666;DHT22;71408;50.106;8.694;2023-08-30T11:08:27;24.30;49.50
74666;DHT22;71408;50.106;8.694;2023-08-30T11:11:03;24.40;49.20
74666;DHT22;71408;50.106;8.694;2023-08-30T11:13:30;24.40;49.10
74666;DHT22;71408;50.106;8.694;2023-08-30T11:15:59;24.40;48.90
74666;DHT22;71408;50.106;8.694;2023-08-30T11:18:25;24.40;48.80
74666;DHT22;71408;50.106;8.694;2023-08-30T11:20:53;24.40;49.00
74666;DHT22;71408;50.106;8.694;2023-08-30T11:23:19;24.40;48.70
74666;DHT22;71408;50.106;8.694;2023-08-30T11:25:49;24.30;48.60
74666;DHT22;71408;50.106;8.694;2023-08-30T11:28:21;24.40;48.50
74666;DHT22;71408;50.106;8.694;2023-08-30T11:30:46;24.40;48.50
74666;DHT22;71408;50.106;8.694;2023-08-30T11:33:12;24.40;48.50
74666;DHT22;71408;50.106;8.694;2023-08-30T11:35:37;24.40;48.40
74666;DHT22;71408;50.106;8.694;2023-08-30T11:38:03;24.40;48.40
74666;DHT22;71408;50.106;8.694;2023-08-30T11:40:29;24.40;48.30
74666;DHT22;71408;50.106;8.694;2023-08-30T11:42:57;24.40;48.40
74666;DHT22;71408;50.106;8.694;2023-08-30T11:45:23;24.40;48.50
74666;DHT22;71408;50.106;8.694;2023-08-30T11:47:48;24.40;48.40
74666;DHT22;71408;50.106;8.694;2023-08-30T11:50:14;24.40;48.30
74666;DHT22;71408;50.106;8.694;2023-08-30T11:52:39;24.40;48.30
74666;DHT22;71408;50.106;8.694;2023-08-30T11:55:05;24.40;48.10
74666;DHT22;71408;50.106;8.694;2023-08-30T11:57:38;24.40;48.00
74666;DHT22;71408;50.106;8.694;2023-08-30T12:00:10;24.50;48.20
74666;DHT22;71408;50.106;8.694;2023-08-30T12:02:36;24.50;48.00
74666;DHT22;71408;50.106;8.694;2023-08-30T12:05:01;24.50;48.00
74666;DHT22;71408;50.106;8.694;2023-08-30T12:07:26;24.50;47.80
74666;DHT22;71408;50.106;8.694;2023-08-30T12:09:52;24.50;47.70
74666;DHT22;71408;50.106;8.694;2023-08-30T12:12:18;24.60;47.80
74666;DHT22;71408;50.106;8.694;2023-08-30T12:14:44;24.60;47.70
74666;DHT22;71408;50.106;8.694;2023-08-30T12:17:09;24.60;47.40
74666;DHT22;71408;50.106;8.694;2023-08-30T12:19:37;24.70;47.30
74666;DHT22;71408;50.106;8.694;2023-08-30T12:22:08;24.70;47.10
74666;DHT22;71408;50.106;8.694;2023-08-30T12:27:25;24.70;47.20
74666;DHT22;71408;50.106;8.694;2023-08-30T12:29:51;24.70;47.00
74666;DHT22;71408;50.106;8.694;2023-08-30T12:32:16;24.80;46.60
74666;DHT22;71408;50.106;8.694;2023-08-30T12:34:42;24.80;46.30
74666;DHT22;71408;50.106;8.694;2023-08-30T12:37:07;24.80;46.30
74666;DHT22;71408;50.106;8.694;2023-08-30T12:39:33;24.80;46.00
74666;DHT22;71408;50.106;8.694;2023-08-30T12:41:58;24.80;46.60
74666;DHT22;71408;50.106;8.694;2023-08-30T12:44:24;24.80;46.30
74666;DHT22;71408;50.106;8.694;2023-08-30T12:46:50;24.80;46.30
74666;DHT22;71408;50.106;8.694;2023-08-30T12:49:15;24.80;46.40
74666;DHT22;71408;50.106;8.694;2023-08-30T12:51:41;24.80;46.00
74666;DHT22;71408;50.106;8.694;2023-08-30T12:54:06;24.80;46.20
74666;DHT22;71408;50.106;8.694;2023-08-30T12:56:32;24.80;46.00
74666;DHT22;71408;50.106;8.694;2023-08-30T12:58:57;24.80;46.10
74666;DHT22;71408;50.106;8.694;2023-08-30T13:01:23;24.80;45.70
74666;DHT22;71408;50.106;8.694;2023-08-30T13:03:49;24.80;45.70
74666;DHT22;71408;50.106;8.694;2023-08-30T13:06:15;24.80;45.80
74666;DHT22;71408;50.106;8.694;2023-08-30T13:08:40;24.80;45.30
74666;DHT22;71408;50.106;8.694;2023-08-30T13:11:06;24.80;45.00
74666;DHT22;71408;50.106;8.694;2023-08-30T13:13:31;24.90;44.80
74666;DHT22;71408;50.106;8.694;2023-08-30T13:15:57;24.90;44.70
74666;DHT22;71408;50.106;8.694;2023-08-30T13:18:22;24.80;44.20
74666;DHT22;71408;50.106;8.694;2023-08-30T13:20:48;24.90;44.20
74666;DHT22;71408;50.106;8.694;2023-08-30T13:23:13;24.80;44.00
74666;DHT22;71408;50.106;8.694;2023-08-30T13:25:39;24.90;44.00
74666;DHT22;71408;50.106;8.694;2023-08-30T13:28:05;24.90;43.90
74666;DHT22;71408;50.106;8.694;2023-08-30T13:30:30;24.80;44.20
74666;DHT22;71408;50.106;8.694;2023-08-30T13:32:56;24.90;44.00
74666;DHT22;71408;50.106;8.694;2023-08-30T13:35:21;24.80;43.90
74666;DHT22;71408;50.106;8.694;2023-08-30T13:37:47;24.90;43.70
74666;DHT22;71408;50.106;8.694;2023-08-30T13:40:13;24.90;43.10
74666;DHT22;71408;50.106;8.694;2023-08-30T13:42:38;24.90;42.90
74666;DHT22;71408;50.106;8.694;2023-08-30T13:45:04;24.90;43.20
74666;DHT22;71408;50.106;8.694;2023-08-30T13:47:31;24.90;42.90
74666;DHT22;71408;50.106;8.694;2023-08-30T13:49:57;24.90;42.70
74666;DHT22;71408;50.106;8.694;2023-08-30T13:52:22;24.90;42.30
74666;DHT22;71408;50.106;8.694;2023-08-30T13:54:48;25.00;42.60
74666;DHT22;71408;50.106;8.694;2023-08-30T13:57:15;25.00;42.40
74666;DHT22;71408;50.106;8.694;2023-08-30T13:59:41;25.00;42.30
74666;DHT22;71408;50.106;8.694;2023-08-30T14:02:07;24.90;42.30
74666;DHT22;71408;50.106;8.694;2023-08-30T14:04:32;24.90;42.60
74666;DHT22;71408;50.106;8.694;2023-08-30T14:06:58;24.90;42.80
74666;DHT22;71408;50.106;8.694;2023-08-30T14:09:23;24.90;42.30
74666;DHT22;71408;50.106;8.694;2023-08-30T14:11:49;24.90;42.00
74666;DHT22;71408;50.106;8.694;2023-08-30T14:14:15;24.90;41.80
74666;DHT22;71408;50.106;8.694;2023-08-30T14:16:40;24.90;41.90
74666;DHT22;71408;50.106;8.694;2023-08-30T14:19:06;24.90;41.90
74666;DHT22;71408;50.106;8.694;2023-08-30T14:21:31;24.90;41.80
74666;DHT22;71408;50.106;8.694;2023-08-30T14:23:58;24.80;41.90
74666;DHT22;71408;50.106;8.694;2023-08-30T14:26:23;24.90;42.10
74666;DHT22;71408;50.106;8.694;2023-08-30T14:28:48;24.90;42.00
74666;DHT22;71408;50.106;8.694;2023-08-30T14:31:14;24.90;42.00
74666;DHT22;71408;50.106;8.694;2023-08-30T14:33:42;24.80;42.00
74666;DHT22;71408;50.106;8.694;2023-08-30T14:36:09;24.80;42.20
74666;DHT22;71408;50.106;8.694;2023-08-30T14:38:35;24.80;42.30
74666;DHT22;71408;50.106;8.694;2023-08-30T14:41:02;24.90;42.20
74666;DHT22;71408;50.106;8.694;2023-08-30T14:43:28;24.90;42.30
74666;DHT22;71408;50.106;8.694;2023-08-30T14:46:04;24.90;42.40
74666;DHT22;71408;50.106;8.694;2023-08-30T14:48:30;24.80;42.30
74666;DHT22;71408;50.106;8.694;2023-08-30T14:50:57;24.80;42.60
74666;DHT22;71408;50.106;8.694;2023-08-30T14:53:23;24.80;42.70
74666;DHT22;71408;50.106;8.694;2023-08-30T14:55:48;24.80;42.50
74666;DHT22;71408;50.106;8.694;2023-08-30T14:58:14;24.90;42.60
74666;DHT22;71408;50.106;8.694;2023-08-30T15:00:39;24.80;42.50
74666;DHT22;71408;50.106;8.694;2023-08-30T15:03:05;24.80;42.50
74666;DHT22;71408;50.106;8.694;2023-08-30T15:05:31;24.80;42.60
74666;DHT22;71408;50.106;8.694;2023-08-30T15:07:56;24.80;42.50
74666;DHT22;71408;50.106;8.694;2023-08-30T15:10:22;24.80;42.50
74666;DHT22;71408;50.106;8.694;2023-08-30T15:12:48;24.80;42.60
74666;DHT22;71408;50.106;8.694;2023-08-30T15:15:16;24.80;42.50
74666;DHT22;71408;50.106;8.694;2023-08-30T15:17:41;24.80;42.50
74666;DHT22;71408;50.106;8.694;2023-08-30T15:20:07;24.80;42.60
74666;DHT22;71408;50.106;8.694;2023-08-30T15:22:33;24.80;42.60
74666;DHT22;71408;50.106;8.694;2023-08-30T15:24:59;24.80;42.60
74666;DHT22;71408;50.106;8.694;2023-08-30T15:27:27;24.80;42.50
74666;DHT22;71408;50.106;8.694;2023-08-30T15:29:52;24.80;42.60